Time;durP1;ratioP1;P1;durP2;ratioP2;P2;SDS_P1;SDS_P2;PMS_P1;PMS_P2;Temp;Humidity;BMP_temperature;BMP_pressure;BME280_temperature;BME280_humidity;BME280_pressure;Samples;Min_cycle;Max_cycle;Signal;HPM_P1;HPM_P2
2022/05/09 00:01:31;;;;;;;11.15;4.38;;;;;;;7.13;100.00;102648.59;5315109;28;20067;-81
2022/05/09 00:04:02;;;;;;;12.35;5.10;;;;;;;7.24;100.00;102648.06;5321384;27;20099;-81
2022/05/09 00:06:34;;;;;;;15.15;5.22;;;;;;;7.28;100.00;102647.84;5317105;27;20031;-81
2022/05/09 00:09:05;;;;;;;15.77;5.00;;;;;;;7.42;100.00;102638.31;5334004;27;20020;-81
2022/05/09 00:11:36;;;;;;;17.23;4.78;;;;;;;7.39;100.00;102640.16;5332195;27;20045;-81
2022/05/09 00:14:08;;;;;;;10.02;4.40;;;;;;;7.41;100.00;102631.28;5337656;27;20028;-81
2022/05/09 00:16:40;;;;;;;13.30;4.60;;;;;;;7.48;100.00;102638.00;5335460;27;20391;-81
2022/05/09 00:19:13;;;;;;;7.50;4.22;;;;;;;7.46;100.00;102634.56;5313089;27;20028;-81
2022/05/09 00:21:45;;;;;;;17.23;5.82;;;;;;;7.34;100.00;102625.41;5337839;27;20051;-81
2022/05/09 00:24:17;;;;;;;10.80;4.30;;;;;;;7.42;100.00;102631.22;5336238;27;20106;-81
2022/05/09 00:26:50;;;;;;;11.13;5.07;;;;;;;7.55;100.00;102634.09;5337433;27;20029;-82
2022/05/09 00:29:22;;;;;;;13.43;5.43;;;;;;;7.24;100.00;102632.13;5311219;27;20151;-81
2022/05/09 00:31:57;;;;;;;15.15;4.57;;;;;;;7.56;100.00;102635.81;5332972;27;20020;-82
2022/05/09 00:34:28;;;;;;;6.10;4.18;;;;;;;7.54;100.00;102633.25;5331016;27;20032;-81
2022/05/09 00:37:00;;;;;;;10.70;4.68;;;;;;;7.49;100.00;102622.00;5335593;27;20441;-81
2022/05/09 00:39:34;;;;;;;9.68;4.10;;;;;;;7.21;100.00;102629.66;5317812;27;20027;-82
2022/05/09 00:42:10;;;;;;;7.25;4.47;;;;;;;7.35;100.00;102635.13;5334594;27;20039;-82
2022/05/09 00:44:42;;;;;;;10.57;4.90;;;;;;;6.85;100.00;102634.00;5340093;27;20076;-81
2022/05/09 00:47:13;;;;;;;12.80;4.68;;;;;;;6.68;100.00;102634.84;5333631;27;20020;-82
2022/05/09 00:49:50;;;;;;;13.23;4.95;;;;;;;6.24;100.00;102625.41;5314109;27;20197;-81
2022/05/09 00:52:30;;;;;;;12.75;4.75;;;;;;;6.14;100.00;102632.03;5334872;27;20028;-81
2022/05/09 00:55:11;;;;;;;12.20;5.22;;;;;;;6.09;100.00;102627.88;5338593;27;20019;-81
2022/05/09 00:57:53;;;;;;;14.82;5.13;;;;;;;5.98;100.00;102617.78;5338024;27;20478;-81
2022/05/09 01:00:25;;;;;;;13.20;4.85;;;;;;;5.95;100.00;102628.47;5336948;27;20039;-81
2022/05/09 01:03:01;;;;;;;11.95;6.00;;;;;;;5.69;100.00;102630.47;5335380;27;20032;-82
2022/05/09 01:05:33;;;;;;;13.48;5.65;;;;;;;5.93;100.00;102623.25;5311539;28;20044;-82
2022/05/09 01:08:05;;;;;;;11.68;5.88;;;;;;;5.71;100.00;102620.66;5313315;28;20105;-82
2022/05/09 01:10:41;;;;;;;23.52;7.18;;;;;;;5.61;100.00;102620.22;5294635;28;20403;-81
2022/05/09 01:13:15;;;;;;;15.30;6.00;;;;;;;5.47;100.00;102622.63;5316608;27;20024;-81
2022/05/09 01:15:49;;;;;;;10.88;5.05;;;;;;;5.27;100.00;102612.88;5293274;28;20031;-81
2022/05/09 01:18:21;;;;;;;12.85;4.90;;;;;;;5.32;100.00;102613.53;5315217;28;20028;-81
2022/05/09 01:20:53;;;;;;;9.15;5.00;;;;;;;5.42;100.00;102609.56;5309601;28;20043;-81
2022/05/09 01:23:24;;;;;;;11.85;5.25;;;;;;;5.44;100.00;102593.63;5312598;28;20032;-81
2022/05/09 01:25:57;;;;;;;13.25;5.97;;;;;;;5.42;100.00;102608.72;5313585;28;20035;-81
2022/05/09 01:28:28;;;;;;;18.20;6.20;;;;;;;5.21;100.00;102606.06;5299489;28;20028;-81
2022/05/09 01:31:02;;;;;;;16.55;6.22;;;;;;;5.16;100.00;102600.09;5312503;27;20039;-82
2022/05/09 01:33:40;;;;;;;16.65;5.63;;;;;;;5.14;100.00;102603.72;5310275;28;20050;-81
2022/05/09 01:36:17;;;;;;;17.08;6.40;;;;;;;4.97;100.00;102607.91;5315900;28;20048;-81
2022/05/09 01:39:00;;;;;;;15.35;5.97;;;;;;;4.87;100.00;102603.94;5312993;28;20039;-81
2022/05/09 01:41:38;;;;;;;11.32;5.60;;;;;;;4.82;100.00;102605.91;5312405;28;20384;-81
2022/05/09 01:44:11;;;;;;;14.23;5.80;;;;;;;4.85;100.00;102601.34;5312450;28;20040;-81
2022/05/09 01:49:35;;;;;;;13.00;5.88;;;;;;;4.51;100.00;102612.41;5311895;28;20365;-81
2022/05/09 01:52:08;;;;;;;13.82;5.68;;;;;;;4.43;100.00;102607.41;5313600;28;20079;-81
2022/05/09 01:54:43;;;;;;;13.63;5.80;;;;;;;4.39;100.00;102611.09;5313280;28;20388;-81
2022/05/09 01:57:14;;;;;;;10.52;5.68;;;;;;;4.33;100.00;102614.84;5313096;28;20020;-81
2022/05/09 01:59:46;;;;;;;14.85;6.07;;;;;;;4.20;100.00;102608.28;5295838;28;20035;-81
2022/05/09 02:02:20;;;;;;;14.32;5.53;;;;;;;4.24;100.00;102601.13;5315274;28;20032;-81
2022/05/09 02:04:51;;;;;;;13.13;5.72;;;;;;;4.29;100.00;102609.72;5310587;28;20063;-81
2022/05/09 02:07:23;;;;;;;11.48;6.25;;;;;;;4.64;100.00;102607.50;5313107;28;20028;-81
2022/05/09 02:09:54;;;;;;;18.52;8.27;;;;;;;4.51;100.00;102610.63;5314195;28;20468;-81
2022/05/09 02:12:27;;;;;;;12.80;6.05;;;;;;;4.57;100.00;102601.59;5291694;28;20373;-81
2022/05/09 02:14:58;;;;;;;17.38;7.30;;;;;;;4.57;100.00;102606.88;5313400;27;20024;-81
2022/05/09 02:17:31;;;;;;;13.55;6.95;;;;;;;4.72;100.00;102597.50;5308208;28;20134;-80
2022/05/09 02:20:03;;;;;;;10.38;5.90;;;;;;;4.47;100.00;102592.28;5294511;28;20032;-80
2022/05/09 02:22:34;;;;;;;14.25;7.13;;;;;;;4.37;100.00;102602.38;5310829;28;20186;-80
2022/05/09 02:25:26;;;;;;;16.95;6.50;;;;;;;4.23;100.00;102596.78;5311882;28;20024;-80
2022/05/09 02:27:59;;;;;;;12.80;6.57;;;;;;;4.37;100.00;102601.53;5312858;28;20314;-80
2022/05/09 02:30:30;;;;;;;13.85;6.68;;;;;;;4.46;100.00;102599.38;5317442;27;20028;-80
2022/05/09 02:33:02;;;;;;;14.65;7.57;;;;;;;4.29;100.00;102600.00;5313089;28;20798;-80
2022/05/09 02:35:35;;;;;;;16.73;7.15;;;;;;;4.43;100.00;102602.13;5311321;28;20036;-80
2022/05/09 02:38:07;;;;;;;12.38;7.00;;;;;;;4.35;100.00;102594.50;5311951;28;20031;-80
2022/05/09 02:40:40;;;;;;;11.93;6.57;;;;;;;4.35;100.00;102589.22;5314247;28;20036;-80
2022/05/09 02:43:11;;;;;;;14.32;6.97;;;;;;;4.10;100.00;102596.34;5290448;28;20032;-80
2022/05/09 02:45:43;;;;;;;12.10;6.07;;;;;;;3.84;100.00;102586.75;5314272;28;20450;-80
2022/05/09 02:48:15;;;;;;;14.07;6.47;;;;;;;3.94;100.00;102596.94;5310167;28;20429;-80
2022/05/09 02:50:47;;;;;;;9.73;5.80;;;;;;;3.62;100.00;102581.41;5312807;28;20039;-80
2022/05/09 02:53:18;;;;;;;13.77;6.43;;;;;;;3.41;100.00;102597.06;5311249;28;20028;-80
2022/05/09 02:55:49;;;;;;;17.23;6.80;;;;;;;3.43;100.00;102597.88;5286839;28;20027;-80
2022/05/09 02:58:21;;;;;;;14.48;6.63;;;;;;;3.57;100.00;102590.31;5311144;27;20024;-80
2022/05/09 03:00:52;;;;;;;13.13;6.35;;;;;;;3.52;100.00;102588.78;5312380;27;20028;-80
2022/05/09 03:06:14;;;;;;;11.10;5.97;;;;;;;3.35;100.00;102584.09;5313331;28;20439;-80
2022/05/09 03:08:45;;;;;;;14.52;6.82;;;;;;;3.29;100.00;102593.06;5315264;28;20142;-80
2022/05/09 03:11:17;;;;;;;14.95;6.68;;;;;;;3.16;100.00;102589.13;5311107;28;20107;-80
2022/05/09 03:13:48;;;;;;;16.55;7.22;;;;;;;3.08;100.00;102578.81;5316853;27;20157;-80
2022/05/09 03:16:19;;;;;;;14.77;6.93;;;;;;;3.10;100.00;102589.34;5309624;28;20384;-80
2022/05/09 03:18:51;;;;;;;9.40;5.88;;;;;;;3.19;100.00;102583.75;5311836;28;20089;-80
2022/05/09 03:21:23;;;;;;;9.45;5.85;;;;;;;3.23;100.00;102590.66;5314490;28;20024;-80
2022/05/09 03:23:54;;;;;;;12.77;6.82;;;;;;;3.35;100.00;102587.59;5314485;28;20044;-80
2022/05/09 03:26:26;;;;;;;15.13;8.00;;;;;;;3.32;100.00;102587.69;5316519;28;20406;-80
2022/05/09 03:28:57;;;;;;;17.65;7.15;;;;;;;3.36;100.00;102584.03;5316049;27;20059;-80
2022/05/09 03:31:30;;;;;;;12.48;7.38;;;;;;;3.34;100.00;102577.09;5313054;28;20025;-80
2022/05/09 03:34:01;;;;;;;20.27;7.43;;;;;;;3.37;100.00;102571.72;5315843;28;20067;-80
2022/05/09 03:36:33;;;;;;;15.40;8.50;;;;;;;3.36;100.00;102577.91;5312023;28;20135;-80
2022/05/09 03:39:05;;;;;;;13.77;7.65;;;;;;;3.40;100.00;102575.09;5293060;28;20097;-80
2022/05/09 03:41:37;;;;;;;16.23;7.85;;;;;;;3.49;100.00;102568.66;5311568;28;20029;-80
2022/05/09 03:44:08;;;;;;;16.23;8.18;;;;;;;3.62;100.00;102570.84;5294210;28;20043;-80
2022/05/09 03:46:39;;;;;;;14.90;7.72;;;;;;;3.59;100.00;102572.69;5310273;28;20032;-80
2022/05/09 03:49:12;;;;;;;20.77;10.43;;;;;;;3.73;100.00;102574.78;5315358;28;20177;-80
2022/05/09 03:51:44;;;;;;;20.35;9.40;;;;;;;3.67;100.00;102568.91;5305582;28;20453;-80
2022/05/09 03:54:15;;;;;;;15.80;7.63;;;;;;;3.74;100.00;102573.91;5310633;28;39335;-80
2022/05/09 03:56:46;;;;;;;20.25;7.53;;;;;;;3.57;100.00;102577.13;5310265;28;20380;-80
2022/05/09 03:59:18;;;;;;;16.75;7.75;;;;;;;3.69;100.00;102575.84;5315998;27;20032;-80
2022/05/09 04:01:49;;;;;;;15.70;7.90;;;;;;;3.78;100.00;102570.22;5315350;28;20063;-80
2022/05/09 04:04:21;;;;;;;14.32;7.53;;;;;;;3.96;100.00;102570.47;5313567;27;20089;-80
2022/05/09 04:06:52;;;;;;;19.00;8.70;;;;;;;4.00;100.00;102573.84;5311344;28;20024;-81
2022/05/09 04:09:23;;;;;;;17.60;9.32;;;;;;;4.44;100.00;102574.78;5313856;27;20028;-81
2022/05/09 04:11:54;;;;;;;15.38;9.10;;;;;;;4.50;100.00;102584.25;5308927;28;20484;-81
2022/05/09 04:17:16;;;;;;;23.63;10.48;;;;;;;4.54;100.00;102584.09;5311614;28;20035;-81
2022/05/09 04:19:47;;;;;;;21.75;9.82;;;;;;;4.27;100.00;102580.72;5309487;28;20081;-81
2022/05/09 04:22:19;;;;;;;11.52;7.30;;;;;;;4.40;100.00;102573.19;5292964;28;20418;-81
2022/05/09 04:24:50;;;;;;;13.93;8.63;;;;;;;4.23;100.00;102579.13;5312273;28;20031;-81
2022/05/09 04:27:22;;;;;;;17.40;8.63;;;;;;;4.26;100.00;102572.84;5314267;28;20051;-80
2022/05/09 04:29:55;;;;;;;18.83;9.98;;;;;;;4.12;100.00;102574.25;5292333;28;20101;-80
2022/05/09 04:32:26;;;;;;;19.67;9.48;;;;;;;4.02;100.00;102575.53;5310839;28;20024;-81
2022/05/09 04:34:57;;;;;;;13.80;8.75;;;;;;;3.93;100.00;102565.31;5312135;28;20048;-81
2022/05/09 04:37:29;;;;;;;24.88;11.60;;;;;;;4.12;100.00;102574.25;5309531;28;20081;-80
2022/05/09 04:40:00;;;;;;;25.63;11.15;;;;;;;4.18;100.00;102565.22;5309768;28;20051;-81
2022/05/09 04:42:31;;;;;;;34.20;13.57;;;;;;;4.31;100.00;102573.53;5291552;28;20127;-80
2022/05/09 04:45:03;;;;;;;22.70;10.10;;;;;;;4.78;100.00;102575.22;5309759;28;20036;-80
2022/05/09 04:47:34;;;;;;;25.75;11.13;;;;;;;5.15;100.00;102571.06;5307609;28;20547;-81
2022/05/09 04:50:07;;;;;;;33.28;13.45;;;;;;;4.92;100.00;102565.78;5289099;28;20512;-80
2022/05/09 04:52:39;;;;;;;26.27;13.32;;;;;;;5.13;100.00;102576.41;5313239;28;20024;-81
2022/05/09 04:55:11;;;;;;;24.83;12.48;;;;;;;5.21;100.00;102576.94;5295161;28;20036;-80
2022/05/09 04:57:44;;;;;;;22.98;11.07;;;;;;;5.43;100.00;102570.72;5291722;28;20040;-81
2022/05/09 05:00:17;;;;;;;29.27;12.30;;;;;;;5.36;100.00;102561.34;5292934;28;20023;-80
2022/05/09 05:02:48;;;;;;;32.53;11.43;;;;;;;5.52;100.00;102559.72;5309534;28;20437;-80
2022/05/09 05:05:20;;;;;;;23.42;11.85;;;;;;;5.68;100.00;102566.09;5308189;27;20473;-80
2022/05/09 05:07:52;;;;;;;22.00;10.98;;;;;;;5.80;100.00;102561.16;5309958;28;20491;-81
2022/05/09 05:10:23;;;;;;;30.52;10.48;;;;;;;5.86;100.00;102547.63;5310952;28;20031;-80
2022/05/09 05:12:56;;;;;;;16.13;9.43;;;;;;;5.93;100.00;102549.06;5296243;27;20048;-80
2022/05/09 05:15:29;;;;;;;23.42;9.63;;;;;;;6.02;100.00;102551.31;5314503;28;20623;-80
2022/05/09 05:18:00;;;;;;;22.13;9.40;;;;;;;6.24;100.00;102564.44;5317820;28;20488;-80
2022/05/09 05:20:31;;;;;;;22.55;9.43;;;;;;;6.64;100.00;102564.31;5315058;27;20028;-80
2022/05/09 05:23:03;;;;;;;22.35;8.95;;;;;;;6.91;100.00;102558.59;5316308;28;20075;-80
2022/05/09 05:25:34;;;;;;;20.85;8.43;;;;;;;7.22;100.00;102549.91;5298326;28;20069;-80
2022/05/09 05:28:06;;;;;;;18.58;8.05;;;;;;;7.64;100.00;102566.34;5310447;28;20384;-80
2022/05/09 05:30:37;;;;;;;18.98;7.93;;;;;;;7.98;100.00;102553.91;5307376;27;20040;-80
2022/05/09 05:33:09;;;;;;;16.10;7.35;;;;;;;8.33;100.00;102558.16;5314611;28;20056;-80
2022/05/09 05:35:40;;;;;;;19.38;7.35;;;;;;;8.66;100.00;102559.88;5319704;28;20032;-80
2022/05/09 05:38:11;;;;;;;15.60;6.60;;;;;;;8.87;100.00;102554.25;5317168;27;20020;-80
2022/05/09 05:40:43;;;;;;;17.60;6.57;;;;;;;9.36;100.00;102553.13;5322415;28;20028;-80
2022/05/09 05:43:15;;;;;;;15.93;6.85;;;;;;;9.57;100.00;102549.19;5322884;28;20039;-80
2022/05/09 05:45:46;;;;;;;16.13;6.15;;;;;;;9.94;100.00;102541.56;5323949;28;20058;-80
2022/05/09 05:48:17;;;;;;;14.10;6.40;;;;;;;10.02;100.00;102538.41;5321087;28;20111;-80
2022/05/09 05:50:49;;;;;;;14.48;6.07;;;;;;;10.47;100.00;102549.78;5319646;28;20102;-80
2022/05/09 05:53:20;;;;;;;15.20;5.65;;;;;;;10.99;100.00;102548.09;5302561;28;20060;-80
2022/05/09 05:55:51;;;;;;;15.48;6.57;;;;;;;11.08;100.00;102541.28;5324037;28;20024;-80
2022/05/09 05:58:25;;;;;;;15.40;5.63;;;;;;;11.41;100.00;102537.25;5322205;28;20028;-80
2022/05/09 06:00:57;;;;;;;16.88;5.38;;;;;;;11.82;100.00;102542.38;5319614;27;20112;-81
2022/05/09 06:03:28;;;;;;;12.98;5.28;;;;;;;12.05;100.00;102550.63;5322000;27;20066;-80
2022/05/09 06:05:59;;;;;;;14.35;5.40;;;;;;;12.39;100.00;102548.16;5303977;28;20020;-80
2022/05/09 06:08:30;;;;;;;10.52;5.30;;;;;;;12.83;100.00;102543.97;5318688;28;20038;-80
2022/05/09 06:11:05;;;;;;;11.50;4.90;;;;;;;13.22;100.00;102537.41;5307147;28;21327;-80
2022/05/09 06:13:37;;;;;;;15.55;5.32;;;;;;;13.68;100.00;102542.88;5305141;28;20028;-80
2022/05/09 06:16:08;;;;;;;11.90;5.13;;;;;;;13.81;100.00;102538.22;5320193;28;20040;-80
2022/05/09 06:18:39;;;;;;;10.68;5.15;;;;;;;14.25;100.00;102544.50;5320837;28;20031;-81
2022/05/09 06:21:11;;;;;;;13.65;4.68;;;;;;;14.47;100.00;102535.56;5322522;28;20789;-80
2022/05/09 06:23:43;;;;;;;11.23;4.82;;;;;;;14.75;100.00;102544.88;5320388;28;20035;-80
2022/05/09 06:26:14;;;;;;;11.10;4.93;;;;;;;15.27;100.00;102547.69;5305183;28;20047;-81
2022/05/09 06:28:45;;;;;;;20.50;5.90;;;;;;;15.70;100.00;102537.69;5303483;28;20020;-80
2022/05/09 06:31:18;;;;;;;16.70;5.00;;;;;;;15.85;100.00;102532.84;5321731;27;20040;-81
2022/05/09 06:33:49;;;;;;;14.88;5.40;;;;;;;16.05;100.00;102534.59;5322639;28;20034;-80
2022/05/09 06:36:20;;;;;;;15.30;5.28;;;;;;;16.57;100.00;102538.97;5322793;28;20039;-80
2022/05/09 06:38:52;;;;;;;19.70;5.93;;;;;;;16.92;100.00;102530.34;5319493;27;20042;-81
2022/05/09 06:41:24;;;;;;;15.98;5.65;;;;;;;16.71;100.00;102526.91;5292053;28;20108;-81
2022/05/09 06:43:55;;;;;;;18.50;5.43;;;;;;;17.41;100.00;102530.25;5327808;28;20080;-81
2022/05/09 06:46:30;;;;;;;12.65;4.88;;;;;;;17.76;98.89;102534.94;5303664;28;20166;-81
2022/05/09 06:49:01;;;;;;;14.48;5.90;;;;;;;18.31;98.15;102530.53;5304748;27;20032;-80
2022/05/09 06:51:32;;;;;;;13.02;5.13;;;;;;;18.62;96.76;102527.47;5314305;27;20048;-79
2022/05/09 06:54:05;;;;;;;16.38;5.43;;;;;;;18.87;89.34;102524.00;5322316;27;20020;-81
2022/05/09 06:56:37;;;;;;;14.13;5.68;;;;;;;19.13;82.45;102527.75;5322424;28;20555;-80
2022/05/09 06:59:08;;;;;;;11.77;4.70;;;;;;;19.49;80.39;102528.47;5326381;27;20103;-81
2022/05/09 07:01:39;;;;;;;22.58;6.32;;;;;;;19.52;67.65;102519.19;5306057;28;20024;-81
2022/05/09 07:04:11;;;;;;;14.13;5.03;;;;;;;20.42;66.52;102526.81;5304183;28;20036;-81
2022/05/09 07:06:42;;;;;;;11.88;4.82;;;;;;;21.19;63.79;102526.50;5325450;28;20028;-81
2022/05/09 07:09:15;;;;;;;13.07;5.03;;;;;;;21.22;55.01;102516.16;5328818;27;20375;-81
2022/05/09 07:11:46;;;;;;;18.73;5.03;;;;;;;21.38;51.07;102522.59;5347120;27;20026;-81
2022/05/09 07:14:18;;;;;;;15.82;5.10;;;;;;;21.85;52.18;102522.59;5341361;27;20020;-81
2022/05/09 07:16:49;;;;;;;18.42;5.22;;;;;;;22.58;49.84;102516.94;5347925;27;20106;-81
2022/05/09 07:19:21;;;;;;;11.85;5.10;;;;;;;21.10;48.38;102517.53;5342669;27;20082;-80
2022/05/09 07:21:52;;;;;;;11.88;5.30;;;;;;;22.76;50.26;102517.47;5345796;27;20103;-80
2022/05/09 07:24:23;;;;;;;15.57;5.22;;;;;;;23.38;47.55;102515.53;5339902;27;20070;-81
2022/05/09 07:26:55;;;;;;;19.23;5.07;;;;;;;23.47;45.00;102519.00;5340021;27;20096;-81
2022/05/09 07:29:26;;;;;;;16.95;5.10;;;;;;;23.65;42.19;102516.78;5329304;27;20020;-81
2022/05/09 07:31:57;;;;;;;14.50;4.45;;;;;;;23.58;43.57;102519.41;5345513;27;20387;-80
2022/05/09 07:34:29;;;;;;;14.68;4.95;;;;;;;23.20;42.94;102521.34;5346121;27;20067;-81
2022/05/09 07:37:00;;;;;;;14.70;5.13;;;;;;;24.87;38.99;102524.19;5346695;27;20072;-81
2022/05/09 07:39:31;;;;;;;12.88;4.97;;;;;;;26.16;37.29;102516.59;5346095;27;20046;-81
2022/05/09 07:42:03;;;;;;;15.45;4.47;;;;;;;24.55;36.43;102516.59;5346659;27;20369;-80
2022/05/09 07:44:34;;;;;;;10.30;4.30;;;;;;;26.44;36.57;102519.16;5346282;27;20030;-81
2022/05/09 07:47:06;;;;;;;10.98;4.55;;;;;;;26.86;34.96;102519.00;5346146;27;20463;-80
2022/05/09 07:49:37;;;;;;;8.98;4.20;;;;;;;26.56;34.72;102520.22;5345764;27;20035;-80
2022/05/09 07:52:09;;;;;;;9.40;3.72;;;;;;;27.84;33.67;102527.25;5344031;27;27341;-81
2022/05/09 07:54:40;;;;;;;9.80;3.80;;;;;;;28.25;31.85;102516.94;5344905;27;20123;-80
2022/05/09 07:57:12;;;;;;;11.00;4.82;;;;;;;28.23;30.31;102516.31;5343944;27;20091;-80
2022/05/09 07:59:44;;;;;;;10.45;4.25;;;;;;;28.46;29.72;102510.25;5343585;27;20027;-80
2022/05/09 08:02:15;;;;;;;12.40;4.60;;;;;;;29.71;29.46;102520.25;5345919;27;20472;-81
2022/05/09 08:04:46;;;;;;;12.57;4.25;;;;;;;29.56;29.12;102517.91;5326478;27;20036;-81
2022/05/09 08:07:18;;;;;;;8.75;3.90;;;;;;;29.04;29.25;102522.88;5306856;28;20032;-81
2022/05/09 08:09:49;;;;;;;11.80;4.07;;;;;;;28.78;27.83;102521.22;5322289;28;20085;-81
2022/05/09 08:12:21;;;;;;;9.53;3.90;;;;;;;30.61;26.97;102515.00;5324558;28;20024;-81
2022/05/09 08:14:52;;;;;;;8.77;3.88;;;;;;;31.93;26.27;102521.88;5322432;27;20271;-82
2022/05/09 08:17:24;;;;;;;11.37;4.10;;;;;;;31.88;25.53;102516.25;5323553;28;20035;-81
2022/05/09 08:19:55;;;;;;;8.95;3.40;;;;;;;32.28;24.88;102514.53;5305469;28;20262;-81
2022/05/09 08:22:31;;;;;;;9.23;3.63;;;;;;;31.60;24.98;102517.06;5304606;28;20064;-82
2022/05/09 08:25:04;;;;;;;10.20;4.10;;;;;;;31.52;25.45;102515.50;5292739;28;20024;-81
2022/05/09 08:27:36;;;;;;;7.53;3.65;;;;;;;33.14;24.12;102503.25;5288728;28;20024;-80
2022/05/09 08:30:08;;;;;;;10.88;4.40;;;;;;;33.94;23.03;102514.75;5299932;27;20044;-81
2022/05/09 08:32:40;;;;;;;8.88;3.80;;;;;;;32.97;23.09;102508.78;5312517;28;20044;-80
2022/05/09 08:35:13;;;;;;;7.50;3.50;;;;;;;33.90;23.00;102508.06;5292310;28;20036;-81
2022/05/09 08:37:44;;;;;;;10.90;4.03;;;;;;;34.90;22.34;102515.09;5319704;28;20393;-80
2022/05/09 08:40:32;;;;;;;9.80;4.17;;;;;;;34.78;23.44;102501.41;5285493;28;20035;-80
2022/05/09 08:43:24;;;;;;;11.00;4.20;;;;;;;36.06;23.32;102513.09;5283917;28;20287;-81
2022/05/09 08:46:13;;;;;;;14.60;4.68;;;;;;;36.37;22.66;102513.16;5270829;28;20111;-80
2022/05/09 08:48:52;;;;;;;10.82;4.15;;;;;;;35.58;21.42;102510.47;5302802;28;20389;-81
2022/05/09 08:51:40;;;;;;;9.70;4.20;;;;;;;36.23;21.54;102512.06;5284405;28;20064;-80
2022/05/09 08:54:17;;;;;;;13.38;4.53;;;;;;;37.03;20.45;102509.50;5315072;28;20029;-81
2022/05/09 08:56:55;;;;;;;11.48;4.15;;;;;;;37.58;19.92;102509.56;5314848;28;20368;-80
2022/05/09 08:59:33;;;;;;;7.55;3.75;;;;;;;36.50;19.62;102498.72;5310997;27;20115;-80
2022/05/09 09:02:20;;;;;;;11.85;3.88;;;;;;;37.33;20.11;102506.94;5302107;28;20017;-81
2022/05/09 09:04:55;;;;;;;17.55;4.65;;;;;;;37.94;18.44;102492.69;5301107;28;20068;-80
2022/05/09 09:07:45;;;;;;;9.73;3.22;;;;;;;39.40;18.30;102493.81;5303680;28;20023;-80
2022/05/09 09:10:39;;;;;;;8.82;3.65;;;;;;;39.47;18.16;102486.75;5322716;28;23405;-80
2022/05/09 09:13:23;;;;;;;8.35;3.60;;;;;;;39.64;18.00;102488.19;5330796;27;20027;-81
2022/05/09 09:16:11;;;;;;;8.90;3.65;;;;;;;39.21;17.59;102482.63;5344246;27;20020;-81
2022/05/09 09:19:07;;;;;;;9.50;3.83;;;;;;;38.44;19.02;102478.66;5322062;28;20079;-81
2022/05/09 09:21:57;;;;;;;6.88;3.95;;;;;;;39.46;17.79;102476.69;5325597;28;20028;-81
2022/05/09 09:24:46;;;;;;;14.02;3.88;;;;;;;39.21;18.44;102471.47;5318804;28;20078;-81
2022/05/09 09:27:44;;;;;;;7.97;3.15;;;;;;;40.53;17.81;102478.13;5305981;28;20021;-81
2022/05/09 09:30:19;;;;;;;6.07;2.97;;;;;;;40.24;16.71;102473.59;5315767;27;20111;-81
2022/05/09 09:33:12;;;;;;;6.30;3.15;;;;;;;41.65;16.01;102476.97;5304891;28;20044;-81
2022/05/09 09:35:55;;;;;;;7.13;2.85;;;;;;;40.25;16.55;102466.84;5326631;28;20468;-81
2022/05/09 09:38:53;;;;;;;6.25;3.08;;;;;;;41.84;15.04;102468.44;5308850;28;20024;-81
2022/05/09 09:41:31;;;;;;;9.35;2.80;;;;;;;41.24;15.85;102470.31;5326422;28;20020;-81
2022/05/09 09:44:11;;;;;;;8.15;2.85;;;;;;;41.04;15.57;102463.16;5323753;28;20123;-81
2022/05/09 09:47:00;;;;;;;6.88;2.70;;;;;;;41.52;16.00;102459.06;5318309;28;20471;-80
2022/05/09 09:49:40;;;;;;;15.85;3.53;;;;;;;41.46;16.02;102460.31;5318977;27;36738;-81
2022/05/09 09:52:25;;;;;;;10.40;3.55;;;;;;;41.85;14.94;102462.50;5318373;27;20043;-81
2022/05/09 09:55:13;;;;;;;10.52;3.17;;;;;;;40.98;15.96;102453.22;5316340;28;20423;-81
2022/05/09 09:57:46;;;;;;;6.95;3.03;;;;;;;40.70;15.87;102444.00;5326859;28;20024;-81
2022/05/09 10:00:21;;;;;;;7.47;2.80;;;;;;;41.85;15.10;102453.25;5305928;28;20480;-81
2022/05/09 10:02:55;;;;;;;5.68;2.60;;;;;;;39.91;15.62;102445.63;5313964;28;20042;-81
2022/05/09 10:05:35;;;;;;;6.00;2.40;;;;;;;42.61;15.33;102446.84;5305649;28;20040;-81
2022/05/09 10:08:31;;;;;;;7.45;3.03;;;;;;;42.63;15.58;102428.53;5286411;28;20051;-81
2022/05/09 10:11:22;;;;;;;9.93;3.60;;;;;;;43.55;14.28;102427.75;5285017;28;20032;-81
2022/05/09 10:13:56;;;;;;;9.27;3.53;;;;;;;42.85;14.43;102418.34;5326290;27;20035;-82
2022/05/09 10:16:33;;;;;;;4.90;2.58;;;;;;;42.81;14.66;102422.97;5326329;28;20030;-81
2022/05/09 10:19:09;;;;;;;9.65;2.92;;;;;;;43.91;13.89;102429.38;5314069;28;20028;-81
2022/05/09 10:24:49;;;;;;;7.45;2.50;;;;;;;43.66;14.55;102416.16;5316389;27;20048;-81
2022/05/09 10:27:20;;;;;;;8.27;2.80;;;;;;;43.65;13.34;102411.72;5311668;28;20031;-81
2022/05/09 10:29:57;;;;;;;8.47;2.63;;;;;;;42.73;13.75;102410.59;5325239;27;20086;-81
2022/05/09 10:32:41;;;;;;;8.02;2.92;;;;;;;44.83;13.51;102408.41;5325187;28;20035;-82
2022/05/09 10:35:18;;;;;;;11.65;3.25;;;;;;;44.32;13.26;102399.88;5325975;28;20024;-82
2022/05/09 10:37:55;;;;;;;6.68;2.80;;;;;;;44.27;13.51;102397.25;5311279;28;20109;-81
2022/05/09 10:40:31;;;;;;;6.53;2.67;;;;;;;44.60;13.07;102404.22;5319748;27;20028;-81
2022/05/09 10:43:06;;;;;;;8.57;2.63;;;;;;;43.42;13.57;102401.47;5302187;28;20039;-81
2022/05/09 10:45:46;;;;;;;9.85;2.80;;;;;;;42.58;13.87;102392.22;5304597;28;20016;-81
2022/05/09 10:48:29;;;;;;;7.20;3.03;;;;;;;43.73;13.68;102402.47;5284437;28;20104;-81
2022/05/09 10:51:11;;;;;;;6.30;2.22;;;;;;;43.98;13.98;102389.53;5307162;27;20349;-81
2022/05/09 10:53:59;;;;;;;9.98;2.83;;;;;;;42.93;13.84;102383.09;5316424;28;20464;-82
2022/05/09 10:56:35;;;;;;;6.15;2.90;;;;;;;42.66;13.54;102385.81;5323461;28;20031;-81
2022/05/09 10:59:18;;;;;;;9.68;2.67;;;;;;;44.86;13.13;102379.56;5305990;27;20016;-82
2022/05/09 11:02:00;;;;;;;6.68;2.63;;;;;;;43.85;13.95;102387.75;5322185;28;20491;-81
2022/05/09 11:04:34;;;;;;;6.13;2.40;;;;;;;44.16;13.95;102373.47;5319496;27;20044;-82
2022/05/09 11:07:16;;;;;;;6.30;2.50;;;;;;;44.32;13.14;102370.91;5323667;28;20028;-82
2022/05/09 11:10:08;;;;;;;4.95;2.60;;;;;;;45.44;13.38;102367.72;5323124;28;20031;-81
2022/05/09 11:13:25;;;;;;;7.43;2.53;;;;;;;45.92;12.13;102362.59;5318621;27;20044;-82
2022/05/09 11:16:14;;;;;;;5.57;2.65;;;;;;;45.51;12.18;102367.97;5282794;27;20699;-82
2022/05/09 11:19:01;;;;;;;7.25;2.53;;;;;;;45.65;12.31;102364.84;5316925;27;20035;-81
2022/05/09 11:21:53;;;;;;;6.63;2.75;;;;;;;46.63;12.19;102361.38;5319441;27;20031;-81
2022/05/09 11:24:56;;;;;;;5.68;2.45;;;;;;;45.42;12.00;102353.16;5311973;27;20480;-82
2022/05/09 11:27:51;;;;;;;5.07;2.30;;;;;;;46.25;12.01;102339.16;5303678;27;20345;-81
2022/05/09 11:30:29;;;;;;;;;;;;;;;49.69;11.33;102347.31;5323559;27;20044;-81
2022/05/09 11:33:30;;;;;;;6.10;2.97;;;;;;;46.96;11.87;102337.81;5320018;27;19986;-81
2022/05/09 11:36:19;;;;;;;5.00;2.72;;;;;;;45.95;12.17;102333.72;5301833;28;20496;-81
2022/05/09 11:39:15;;;;;;;7.88;2.70;;;;;;;46.78;12.29;102329.59;5324380;28;20456;-81
2022/05/09 11:45:20;;;;;;;7.38;2.50;;;;;;;46.71;12.52;102329.41;5316402;28;20025;-82
2022/05/09 11:48:30;;;;;;;7.15;3.10;;;;;;;47.20;12.47;102331.25;5302532;28;20020;-81
2022/05/09 11:51:22;;;;;;;6.10;2.60;;;;;;;47.96;12.37;102320.00;5297106;28;20036;-82
2022/05/09 11:53:59;;;;;;;6.90;3.17;;;;;;;46.21;11.89;102319.31;5315991;28;20106;-82
2022/05/09 11:56:31;;;;;;;8.95;3.25;;;;;;;46.25;11.21;102313.78;5323030;28;20122;-82
2022/05/09 11:59:04;;;;;;;7.20;2.60;;;;;;;45.96;11.75;102302.38;5323457;27;20024;-81
2022/05/09 12:01:53;;;;;;;7.47;2.95;;;;;;;46.70;11.94;102304.34;5320584;28;20483;-82
2022/05/09 12:04:39;;;;;;;8.38;2.75;;;;;;;44.76;13.08;102303.16;5315816;27;20040;-82
2022/05/09 12:07:23;;;;;;;8.48;3.20;;;;;;;46.03;12.73;102302.59;5323768;28;20493;-81
2022/05/09 12:10:15;;;;;;;8.40;3.45;;;;;;;45.72;12.82;102302.34;5304150;28;20020;-81
2022/05/09 12:12:55;;;;;;;6.63;2.97;;;;;;;44.77;12.92;102299.22;5301429;27;20048;-82